Great Smoky Mtns National Park, NC

5:14 PM EST on January 25, 2015 (GMT -0500)
Asheville Middle School | Change Station
CLOSE
Current Station
Personal Weather Station
Location: Asheville, NC
Elevation: 2139 ft
Nearby Weather Stations

Elev 2139 ft 35.59 °N, 82.56 °W | Updated 7 minutes ago

Clear
Clear
48.9 °F
Feels Like 46 °F
N
7.3
Wind Variable Wind from South

Today
High -- | Low -- °F
--% Chance of Precip.
Yesterday
High -- | Low -- °F
Precip. -- in
7:34 AM 5:50 PM
Waxing Crescent, 36% visible
Pressure 29.73 in
Visibility 10.0 miles
Clouds Mostly Cloudy 12000 ft
Windchill 46 °F
Dew Point 27 °F
Humidity 42%
Rainfall 0.00 in
Snow Depth Not available.
UV 0 out of 12
Pollen .70 out of 12
Air Quality Not available.
Flu Activity Not available.
METAR KAVL 252154Z 20011G21KT 10SM BKN120 10/M02 A2973 RMK AO2 SLP068 T01001022

More Conditions Fewer Conditions

Pressure 29.73 in
Visibility 10.0 miles
Clouds Mostly Cloudy 12000 ft
Windchill 46 °F
Dew Point 27 °F
Humidity 42%
Rainfall 0.00 in
Snow Depth Not available.
UV 0 out of 12
Pollen .70 out of 12
Air Quality Not available.
Flu Activity Not available.
METAR KAVL 252154Z 20011G21KT 10SM BKN120 10/M02 A2973 RMK AO2 SLP068 T01001022

More Conditions Fewer Conditions

10-Day Weather Forecast

Almanac

Astronomy

Jan. 25, 2015 Rise Set
Actual Time
Civil Twilight
Nautical Twilight
Astronomical Twilight
Moon
Length of Visible Light
Length of Day
Tomorrow will be .
, % of the Moon is Illuminated

Today's Extremes

State Highs State Lows

Community

WunderPhotos

Upload Photos

1,790,072 photos uploaded!

WunderBlogs® & News

Nearby

Air Quality

  Air Quality AQ Index Pollutant
Not available.

Snow Depth

Station Depth Elevation

Earthquake Activity

City Distance Mag. Time & Date
Minimum magnitude displayed is 2.5.

Coastal Water Temperatures

Place Temperature

Nearby Weather Stations